sensor_id;sensor_type;location;lat;lon;timestamp;P1;durP1;ratioP1;P2;durP2;ratioP2
10230;SDS011;5159;49.432;8.680;2022-07-17T00:02:25;3.83;;;2.80;;
10230;SDS011;5159;49.432;8.680;2022-07-17T00:04:52;3.35;;;2.92;;
10230;SDS011;5159;49.432;8.680;2022-07-17T00:07:19;3.38;;;3.08;;
10230;SDS011;5159;49.432;8.680;2022-07-17T00:09:46;2.90;;;2.67;;
10230;SDS011;5159;49.432;8.680;2022-07-17T00:12:13;3.45;;;3.15;;
10230;SDS011;5159;49.432;8.680;2022-07-17T00:14:41;3.73;;;3.40;;
10230;SDS011;5159;49.432;8.680;2022-07-17T00:17:08;3.88;;;3.58;;
10230;SDS011;5159;49.432;8.680;2022-07-17T00:19:35;4.00;;;3.70;;
10230;SDS011;5159;49.432;8.680;2022-07-17T00:22:02;5.97;;;3.80;;
10230;SDS011;5159;49.432;8.680;2022-07-17T00:24:29;3.80;;;3.50;;
10230;SDS011;5159;49.432;8.680;2022-07-17T00:26:56;4.63;;;4.30;;
10230;SDS011;5159;49.432;8.680;2022-07-17T00:29:23;4.53;;;4.13;;
10230;SDS011;5159;49.432;8.680;2022-07-17T00:31:51;5.00;;;4.47;;
10230;SDS011;5159;49.432;8.680;2022-07-17T00:34:18;5.33;;;4.83;;
10230;SDS011;5159;49.432;8.680;2022-07-17T00:36:45;5.03;;;4.50;;
10230;SDS011;5159;49.432;8.680;2022-07-17T00:39:12;5.53;;;4.30;;
10230;SDS011;5159;49.432;8.680;2022-07-17T00:41:39;4.17;;;3.77;;
10230;SDS011;5159;49.432;8.680;2022-07-17T00:44:07;5.57;;;4.03;;
10230;SDS011;5159;49.432;8.680;2022-07-17T00:46:35;4.20;;;3.80;;
10230;SDS011;5159;49.432;8.680;2022-07-17T00:49:06;4.23;;;3.93;;
10230;SDS011;5159;49.432;8.680;2022-07-17T00:51:33;4.03;;;3.73;;
10230;SDS011;5159;49.432;8.680;2022-07-17T00:54:00;3.60;;;3.30;;
10230;SDS011;5159;49.432;8.680;2022-07-17T00:56:29;4.10;;;3.13;;
10230;SDS011;5159;49.432;8.680;2022-07-17T00:58:57;3.00;;;2.80;;
10230;SDS011;5159;49.432;8.680;2022-07-17T01:01:25;3.07;;;2.80;;
10230;SDS011;5159;49.432;8.680;2022-07-17T01:03:52;3.17;;;2.97;;
10230;SDS011;5159;49.432;8.680;2022-07-17T01:06:21;2.57;;;2.37;;
10230;SDS011;5159;49.432;8.680;2022-07-17T01:08:48;2.47;;;2.00;;
10230;SDS011;5159;49.432;8.680;2022-07-17T01:11:15;2.47;;;2.30;;
10230;SDS011;5159;49.432;8.680;2022-07-17T01:13:42;2.67;;;2.47;;
10230;SDS011;5159;49.432;8.680;2022-07-17T01:16:09;3.33;;;3.10;;
10230;SDS011;5159;49.432;8.680;2022-07-17T01:18:36;2.70;;;2.50;;
10230;SDS011;5159;49.432;8.680;2022-07-17T01:21:05;3.00;;;2.80;;
10230;SDS011;5159;49.432;8.680;2022-07-17T01:23:32;6.35;;;2.63;;
10230;SDS011;5159;49.432;8.680;2022-07-17T01:25:59;2.92;;;2.72;;
10230;SDS011;5159;49.432;8.680;2022-07-17T01:28:26;3.20;;;3.00;;
10230;SDS011;5159;49.432;8.680;2022-07-17T01:30:55;2.90;;;2.70;;
10230;SDS011;5159;49.432;8.680;2022-07-17T01:33:22;3.53;;;2.70;;
10230;SDS011;5159;49.432;8.680;2022-07-17T01:35:49;4.78;;;2.85;;
10230;SDS011;5159;49.432;8.680;2022-07-17T01:38:17;2.92;;;2.67;;
10230;SDS011;5159;49.432;8.680;2022-07-17T01:40:44;2.90;;;2.70;;
10230;SDS011;5159;49.432;8.680;2022-07-17T01:43:11;2.70;;;2.60;;
10230;SDS011;5159;49.432;8.680;2022-07-17T01:45:38;4.50;;;2.67;;
10230;SDS011;5159;49.432;8.680;2022-07-17T01:48:06;2.97;;;2.67;;
10230;SDS011;5159;49.432;8.680;2022-07-17T01:50:34;2.95;;;2.75;;
10230;SDS011;5159;49.432;8.680;2022-07-17T01:53:01;4.60;;;2.78;;
10230;SDS011;5159;49.432;8.680;2022-07-17T01:55:29;3.00;;;2.80;;
10230;SDS011;5159;49.432;8.680;2022-07-17T01:57:56;3.08;;;2.90;;
10230;SDS011;5159;49.432;8.680;2022-07-17T02:00:23;3.90;;;2.88;;
10230;SDS011;5159;49.432;8.680;2022-07-17T02:02:50;2.72;;;2.53;;
10230;SDS011;5159;49.432;8.680;2022-07-17T02:05:17;3.10;;;2.90;;
10230;SDS011;5159;49.432;8.680;2022-07-17T02:07:44;2.90;;;2.80;;
10230;SDS011;5159;49.432;8.680;2022-07-17T02:10:11;2.80;;;2.60;;
10230;SDS011;5159;49.432;8.680;2022-07-17T02:12:41;5.97;;;3.00;;
10230;SDS011;5159;49.432;8.680;2022-07-17T02:15:09;3.00;;;2.80;;
10230;SDS011;5159;49.432;8.680;2022-07-17T02:17:36;4.85;;;3.08;;
10230;SDS011;5159;49.432;8.680;2022-07-17T02:20:03;2.92;;;2.70;;
10230;SDS011;5159;49.432;8.680;2022-07-17T02:22:32;3.30;;;2.60;;
10230;SDS011;5159;49.432;8.680;2022-07-17T02:24:59;2.55;;;2.45;;
10230;SDS011;5159;49.432;8.680;2022-07-17T02:27:26;2.72;;;2.53;;
10230;SDS011;5159;49.432;8.680;2022-07-17T02:29:54;6.72;;;2.70;;
10230;SDS011;5159;49.432;8.680;2022-07-17T02:32:21;3.03;;;2.83;;
10230;SDS011;5159;49.432;8.680;2022-07-17T02:34:48;2.90;;;2.70;;
10230;SDS011;5159;49.432;8.680;2022-07-17T02:37:15;2.90;;;2.70;;
10230;SDS011;5159;49.432;8.680;2022-07-17T02:39:41;2.83;;;2.63;;
10230;SDS011;5159;49.432;8.680;2022-07-17T02:42:18;3.10;;;2.80;;
10230;SDS011;5159;49.432;8.680;2022-07-17T02:44:46;2.80;;;2.60;;
10230;SDS011;5159;49.432;8.680;2022-07-17T02:47:19;2.83;;;2.63;;
10230;SDS011;5159;49.432;8.680;2022-07-17T02:49:47;3.00;;;2.70;;
10230;SDS011;5159;49.432;8.680;2022-07-17T02:52:15;3.22;;;3.03;;
10230;SDS011;5159;49.432;8.680;2022-07-17T02:54:42;3.10;;;2.80;;
10230;SDS011;5159;49.432;8.680;2022-07-17T02:57:09;2.92;;;2.63;;
10230;SDS011;5159;49.432;8.680;2022-07-17T02:59:36;3.10;;;2.90;;
10230;SDS011;5159;49.432;8.680;2022-07-17T03:02:03;3.05;;;2.85;;
10230;SDS011;5159;49.432;8.680;2022-07-17T03:04:32;3.03;;;2.90;;
10230;SDS011;5159;49.432;8.680;2022-07-17T03:06:59;7.53;;;3.17;;
10230;SDS011;5159;49.432;8.680;2022-07-17T03:09:26;3.13;;;2.92;;
10230;SDS011;5159;49.432;8.680;2022-07-17T03:11:53;3.17;;;2.87;;
10230;SDS011;5159;49.432;8.680;2022-07-17T03:14:20;4.37;;;3.20;;
10230;SDS011;5159;49.432;8.680;2022-07-17T03:16:47;2.97;;;2.77;;
10230;SDS011;5159;49.432;8.680;2022-07-17T03:19:14;2.80;;;2.60;;
10230;SDS011;5159;49.432;8.680;2022-07-17T03:21:42;3.20;;;3.00;;
10230;SDS011;5159;49.432;8.680;2022-07-17T03:24:09;3.30;;;3.10;;
10230;SDS011;5159;49.432;8.680;2022-07-17T03:26:36;3.07;;;2.87;;
10230;SDS011;5159;49.432;8.680;2022-07-17T03:29:03;3.15;;;2.90;;
10230;SDS011;5159;49.432;8.680;2022-07-17T03:31:30;2.40;;;2.30;;
10230;SDS011;5159;49.432;8.680;2022-07-17T03:33:57;4.10;;;2.80;;
10230;SDS011;5159;49.432;8.680;2022-07-17T03:36:24;2.67;;;2.50;;
10230;SDS011;5159;49.432;8.680;2022-07-17T03:38:52;3.22;;;2.90;;
10230;SDS011;5159;49.432;8.680;2022-07-17T03:41:19;2.97;;;2.77;;
10230;SDS011;5159;49.432;8.680;2022-07-17T03:43:46;2.90;;;2.70;;
10230;SDS011;5159;49.432;8.680;2022-07-17T03:46:13;4.00;;;2.70;;
10230;SDS011;5159;49.432;8.680;2022-07-17T03:48:40;3.10;;;2.90;;
10230;SDS011;5159;49.432;8.680;2022-07-17T03:51:07;2.77;;;2.57;;
10230;SDS011;5159;49.432;8.680;2022-07-17T03:53:34;7.20;;;2.60;;
10230;SDS011;5159;49.432;8.680;2022-07-17T03:56:03;3.30;;;3.00;;
10230;SDS011;5159;49.432;8.680;2022-07-17T03:58:30;8.37;;;4.10;;
10230;SDS011;5159;49.432;8.680;2022-07-17T04:00:58;3.30;;;3.10;;
10230;SDS011;5159;49.432;8.680;2022-07-17T04:03:25;4.73;;;3.13;;
10230;SDS011;5159;49.432;8.680;2022-07-17T04:05:52;4.13;;;2.50;;
10230;SDS011;5159;49.432;8.680;2022-07-17T04:08:19;4.47;;;3.13;;
10230;SDS011;5159;49.432;8.680;2022-07-17T04:10:47;4.03;;;3.57;;
10230;SDS011;5159;49.432;8.680;2022-07-17T04:13:15;6.93;;;3.63;;
10230;SDS011;5159;49.432;8.680;2022-07-17T04:15:42;4.77;;;3.33;;
10230;SDS011;5159;49.432;8.680;2022-07-17T04:18:21;3.47;;;3.00;;
10230;SDS011;5159;49.432;8.680;2022-07-17T04:20:49;3.97;;;3.40;;
10230;SDS011;5159;49.432;8.680;2022-07-17T04:23:17;3.30;;;3.10;;
10230;SDS011;5159;49.432;8.680;2022-07-17T04:25:44;5.33;;;3.10;;
10230;SDS011;5159;49.432;8.680;2022-07-17T04:28:11;3.50;;;3.20;;
10230;SDS011;5159;49.432;8.680;2022-07-17T04:30:40;2.90;;;2.70;;
10230;SDS011;5159;49.432;8.680;2022-07-17T04:33:08;3.60;;;2.80;;
10230;SDS011;5159;49.432;8.680;2022-07-17T04:35:35;5.23;;;3.23;;
10230;SDS011;5159;49.432;8.680;2022-07-17T04:38:02;3.87;;;3.67;;
10230;SDS011;5159;49.432;8.680;2022-07-17T04:40:30;3.00;;;2.70;;
10230;SDS011;5159;49.432;8.680;2022-07-17T04:42:58;2.90;;;2.70;;
10230;SDS011;5159;49.432;8.680;2022-07-17T04:45:25;4.27;;;2.70;;
10230;SDS011;5159;49.432;8.680;2022-07-17T04:47:53;2.83;;;2.63;;
10230;SDS011;5159;49.432;8.680;2022-07-17T04:50:21;3.67;;;3.33;;
10230;SDS011;5159;49.432;8.680;2022-07-17T04:52:48;3.50;;;3.30;;
10230;SDS011;5159;49.432;8.680;2022-07-17T04:55:15;3.47;;;3.27;;
10230;SDS011;5159;49.432;8.680;2022-07-17T04:57:43;3.60;;;3.33;;
10230;SDS011;5159;49.432;8.680;2022-07-17T05:00:10;3.40;;;3.20;;
10230;SDS011;5159;49.432;8.680;2022-07-17T05:02:40;5.00;;;3.27;;
10230;SDS011;5159;49.432;8.680;2022-07-17T05:05:08;4.17;;;3.87;;
10230;SDS011;5159;49.432;8.680;2022-07-17T05:07:35;3.50;;;3.30;;
10230;SDS011;5159;49.432;8.680;2022-07-17T05:10:02;3.67;;;3.37;;
10230;SDS011;5159;49.432;8.680;2022-07-17T05:12:30;3.37;;;3.13;;
10230;SDS011;5159;49.432;8.680;2022-07-17T05:14:57;3.80;;;3.40;;
10230;SDS011;5159;49.432;8.680;2022-07-17T05:17:24;3.53;;;3.33;;
10230;SDS011;5159;49.432;8.680;2022-07-17T05:19:52;4.67;;;3.63;;
10230;SDS011;5159;49.432;8.680;2022-07-17T05:22:20;4.13;;;3.73;;
10230;SDS011;5159;49.432;8.680;2022-07-17T05:24:47;3.57;;;3.30;;
10230;SDS011;5159;49.432;8.680;2022-07-17T05:27:14;3.87;;;3.60;;
10230;SDS011;5159;49.432;8.680;2022-07-17T05:29:41;3.83;;;3.50;;
10230;SDS011;5159;49.432;8.680;2022-07-17T05:32:08;3.60;;;3.30;;
10230;SDS011;5159;49.432;8.680;2022-07-17T05:34:35;4.70;;;2.90;;
10230;SDS011;5159;49.432;8.680;2022-07-17T05:37:02;4.00;;;3.60;;
10230;SDS011;5159;49.432;8.680;2022-07-17T05:39:30;3.60;;;2.83;;
10230;SDS011;5159;49.432;8.680;2022-07-17T05:41:57;5.87;;;3.20;;
10230;SDS011;5159;49.432;8.680;2022-07-17T05:44:24;3.50;;;3.30;;
10230;SDS011;5159;49.432;8.680;2022-07-17T05:46:51;3.97;;;3.63;;
10230;SDS011;5159;49.432;8.680;2022-07-17T05:49:18;3.73;;;3.43;;
10230;SDS011;5159;49.432;8.680;2022-07-17T05:51:45;3.77;;;3.47;;
10230;SDS011;5159;49.432;8.680;2022-07-17T05:54:13;2.73;;;2.53;;
10230;SDS011;5159;49.432;8.680;2022-07-17T05:56:44;7.27;;;2.60;;
10230;SDS011;5159;49.432;8.680;2022-07-17T05:59:11;5.70;;;2.50;;
10230;SDS011;5159;49.432;8.680;2022-07-17T06:01:38;4.93;;;3.60;;
10230;SDS011;5159;49.432;8.680;2022-07-17T06:04:05;4.00;;;3.60;;
10230;SDS011;5159;49.432;8.680;2022-07-17T06:06:32;4.95;;;3.70;;
10230;SDS011;5159;49.432;8.680;2022-07-17T06:08:59;4.93;;;3.55;;
10230;SDS011;5159;49.432;8.680;2022-07-17T06:11:26;7.13;;;3.95;;
10230;SDS011;5159;49.432;8.680;2022-07-17T06:13:54;4.28;;;3.50;;
10230;SDS011;5159;49.432;8.680;2022-07-17T06:16:21;8.70;;;3.85;;
10230;SDS011;5159;49.432;8.680;2022-07-17T06:18:48;6.22;;;3.60;;
10230;SDS011;5159;49.432;8.680;2022-07-17T06:21:15;5.53;;;3.97;;
10230;SDS011;5159;49.432;8.680;2022-07-17T06:23:42;3.92;;;3.65;;
10230;SDS011;5159;49.432;8.680;2022-07-17T06:26:09;4.47;;;3.42;;
10230;SDS011;5159;49.432;8.680;2022-07-17T06:28:36;3.78;;;3.38;;
10230;SDS011;5159;49.432;8.680;2022-07-17T06:31:05;3.78;;;3.47;;
10230;SDS011;5159;49.432;8.680;2022-07-17T06:33:32;4.13;;;3.67;;
10230;SDS011;5159;49.432;8.680;2022-07-17T06:35:59;3.90;;;3.60;;
10230;SDS011;5159;49.432;8.680;2022-07-17T06:38:26;3.90;;;3.47;;
10230;SDS011;5159;49.432;8.680;2022-07-17T06:40:53;3.85;;;3.55;;
10230;SDS011;5159;49.432;8.680;2022-07-17T06:43:20;3.70;;;3.40;;
10230;SDS011;5159;49.432;8.680;2022-07-17T06:45:47;3.97;;;3.55;;
10230;SDS011;5159;49.432;8.680;2022-07-17T06:48:18;3.92;;;3.63;;
10230;SDS011;5159;49.432;8.680;2022-07-17T06:50:44;4.15;;;3.50;;
10230;SDS011;5159;49.432;8.680;2022-07-17T06:53:11;3.70;;;3.45;;
10230;SDS011;5159;49.432;8.680;2022-07-17T06:55:38;4.05;;;3.65;;
10230;SDS011;5159;49.432;8.680;2022-07-17T06:58:06;3.65;;;3.45;;
10230;SDS011;5159;49.432;8.680;2022-07-17T07:00:33;3.65;;;3.45;;
10230;SDS011;5159;49.432;8.680;2022-07-17T07:03:00;3.50;;;3.30;;
10230;SDS011;5159;49.432;8.680;2022-07-17T07:05:29;3.83;;;3.53;;
10230;SDS011;5159;49.432;8.680;2022-07-17T07:07:55;3.80;;;3.50;;
10230;SDS011;5159;49.432;8.680;2022-07-17T07:10:22;4.13;;;3.22;;
10230;SDS011;5159;49.432;8.680;2022-07-17T07:12:49;3.50;;;3.30;;
10230;SDS011;5159;49.432;8.680;2022-07-17T07:15:17;3.60;;;3.40;;
10230;SDS011;5159;49.432;8.680;2022-07-17T07:17:44;3.72;;;3.53;;
10230;SDS011;5159;49.432;8.680;2022-07-17T07:20:11;5.88;;;3.90;;
10230;SDS011;5159;49.432;8.680;2022-07-17T07:22:39;3.83;;;3.63;;
10230;SDS011;5159;49.432;8.680;2022-07-17T07:25:06;3.60;;;3.40;;
10230;SDS011;5159;49.432;8.680;2022-07-17T07:27:34;3.00;;;2.80;;
10230;SDS011;5159;49.432;8.680;2022-07-17T07:30:02;3.03;;;2.83;;
10230;SDS011;5159;49.432;8.680;2022-07-17T07:32:29;5.57;;;3.20;;
10230;SDS011;5159;49.432;8.680;2022-07-17T07:34:56;4.80;;;3.80;;
10230;SDS011;5159;49.432;8.680;2022-07-17T07:37:23;3.53;;;3.33;;
10230;SDS011;5159;49.432;8.680;2022-07-17T07:39:51;3.47;;;3.25;;
10230;SDS011;5159;49.432;8.680;2022-07-17T07:42:18;3.67;;;3.47;;
10230;SDS011;5159;49.432;8.680;2022-07-17T07:44:46;3.80;;;3.50;;
10230;SDS011;5159;49.432;8.680;2022-07-17T07:47:13;3.83;;;3.40;;
10230;SDS011;5159;49.432;8.680;2022-07-17T07:49:40;4.03;;;3.78;;
10230;SDS011;5159;49.432;8.680;2022-07-17T07:52:07;3.80;;;3.50;;
10230;SDS011;5159;49.432;8.680;2022-07-17T07:54:34;3.75;;;3.40;;
10230;SDS011;5159;49.432;8.680;2022-07-17T07:57:03;3.72;;;3.40;;
10230;SDS011;5159;49.432;8.680;2022-07-17T07:59:30;4.60;;;3.25;;
10230;SDS011;5159;49.432;8.680;2022-07-17T08:01:58;3.80;;;3.60;;
10230;SDS011;5159;49.432;8.680;2022-07-17T08:04:25;3.47;;;3.28;;
10230;SDS011;5159;49.432;8.680;2022-07-17T08:06:52;3.97;;;3.33;;
10230;SDS011;5159;49.432;8.680;2022-07-17T08:09:19;3.88;;;3.58;;
10230;SDS011;5159;49.432;8.680;2022-07-17T08:11:46;3.83;;;3.53;;
10230;SDS011;5159;49.432;8.680;2022-07-17T08:14:15;3.70;;;3.40;;
10230;SDS011;5159;49.432;8.680;2022-07-17T08:16:42;4.72;;;4.32;;
10230;SDS011;5159;49.432;8.680;2022-07-17T08:19:09;3.80;;;3.50;;
10230;SDS011;5159;49.432;8.680;2022-07-17T08:21:36;3.95;;;3.75;;
10230;SDS011;5159;49.432;8.680;2022-07-17T08:24:04;3.67;;;3.47;;
10230;SDS011;5159;49.432;8.680;2022-07-17T08:26:31;3.80;;;3.60;;
10230;SDS011;5159;49.432;8.680;2022-07-17T08:28:58;4.00;;;3.70;;
10230;SDS011;5159;49.432;8.680;2022-07-17T08:31:26;4.10;;;3.80;;
10230;SDS011;5159;49.432;8.680;2022-07-17T08:33:53;4.10;;;3.80;;
10230;SDS011;5159;49.432;8.680;2022-07-17T08:36:20;3.78;;;3.58;;
10230;SDS011;5159;49.432;8.680;2022-07-17T08:38:47;3.92;;;3.63;;
10230;SDS011;5159;49.432;8.680;2022-07-17T08:41:15;3.75;;;3.55;;
10230;SDS011;5159;49.432;8.680;2022-07-17T08:43:43;4.22;;;3.85;;
10230;SDS011;5159;49.432;8.680;2022-07-17T08:46:13;3.90;;;3.60;;
10230;SDS011;5159;49.432;8.680;2022-07-17T08:48:45;3.80;;;3.50;;
10230;SDS011;5159;49.432;8.680;2022-07-17T08:51:14;3.85;;;3.60;;
10230;SDS011;5159;49.432;8.680;2022-07-17T08:53:43;3.88;;;3.60;;
10230;SDS011;5159;49.432;8.680;2022-07-17T08:56:10;4.05;;;3.75;;
10230;SDS011;5159;49.432;8.680;2022-07-17T08:58:37;3.70;;;3.50;;
10230;SDS011;5159;49.432;8.680;2022-07-17T09:01:04;3.80;;;3.60;;
10230;SDS011;5159;49.432;8.680;2022-07-17T09:03:32;3.90;;;3.70;;
10230;SDS011;5159;49.432;8.680;2022-07-17T09:06:03;4.20;;;3.80;;
10230;SDS011;5159;49.432;8.680;2022-07-17T09:08:30;4.72;;;4.32;;
10230;SDS011;5159;49.432;8.680;2022-07-17T09:11:01;3.92;;;3.72;;
10230;SDS011;5159;49.432;8.680;2022-07-17T09:13:33;4.25;;;3.90;;
10230;SDS011;5159;49.432;8.680;2022-07-17T09:16:06;3.95;;;3.70;;
10230;SDS011;5159;49.432;8.680;2022-07-17T09:18:41;4.45;;;4.18;;
10230;SDS011;5159;49.432;8.680;2022-07-17T09:21:15;4.00;;;3.80;;
10230;SDS011;5159;49.432;8.680;2022-07-17T09:23:43;4.32;;;4.10;;
10230;SDS011;5159;49.432;8.680;2022-07-17T09:26:10;4.18;;;3.97;;
10230;SDS011;5159;49.432;8.680;2022-07-17T09:28:43;4.28;;;4.03;;
10230;SDS011;5159;49.432;8.680;2022-07-17T09:31:11;4.15;;;3.90;;
10230;SDS011;5159;49.432;8.680;2022-07-17T09:33:39;4.03;;;3.78;;
10230;SDS011;5159;49.432;8.680;2022-07-17T09:36:07;4.30;;;4.00;;
10230;SDS011;5159;49.432;8.680;2022-07-17T09:38:39;4.50;;;4.20;;
10230;SDS011;5159;49.432;8.680;2022-07-17T09:41:10;4.30;;;4.00;;
10230;SDS011;5159;49.432;8.680;2022-07-17T09:43:44;4.70;;;4.40;;
10230;SDS011;5159;49.432;8.680;2022-07-17T09:46:15;4.10;;;3.90;;
10230;SDS011;5159;49.432;8.680;2022-07-17T09:48:45;4.20;;;4.00;;
10230;SDS011;5159;49.432;8.680;2022-07-17T09:51:16;4.70;;;4.40;;
10230;SDS011;5159;49.432;8.680;2022-07-17T09:53:46;4.40;;;4.20;;
10230;SDS011;5159;49.432;8.680;2022-07-17T09:56:16;4.43;;;4.13;;
10230;SDS011;5159;49.432;8.680;2022-07-17T09:58:46;4.00;;;3.78;;
10230;SDS011;5159;49.432;8.680;2022-07-17T10:01:16;4.40;;;4.00;;
10230;SDS011;5159;49.432;8.680;2022-07-17T10:03:43;4.45;;;4.18;;
10230;SDS011;5159;49.432;8.680;2022-07-17T10:06:13;4.43;;;4.13;;
10230;SDS011;5159;49.432;8.680;2022-07-17T10:08:41;4.40;;;4.10;;
10230;SDS011;5159;49.432;8.680;2022-07-17T10:11:10;5.03;;;4.18;;
10230;SDS011;5159;49.432;8.680;2022-07-17T10:13:40;4.10;;;3.80;;
10230;SDS011;5159;49.432;8.680;2022-07-17T10:16:08;4.22;;;4.03;;
10230;SDS011;5159;49.432;8.680;2022-07-17T10:18:37;4.22;;;3.92;;
10230;SDS011;5159;49.432;8.680;2022-07-17T10:21:17;4.35;;;3.95;;
10230;SDS011;5159;49.432;8.680;2022-07-17T10:23:47;4.35;;;3.90;;
10230;SDS011;5159;49.432;8.680;2022-07-17T10:26:34;5.05;;;4.10;;
10230;SDS011;5159;49.432;8.680;2022-07-17T10:29:06;4.07;;;3.88;;
10230;SDS011;5159;49.432;8.680;2022-07-17T10:31:34;4.10;;;3.90;;
10230;SDS011;5159;49.432;8.680;2022-07-17T10:34:04;4.45;;;4.20;;
10230;SDS011;5159;49.432;8.680;2022-07-17T10:36:33;4.18;;;3.88;;
10230;SDS011;5159;49.432;8.680;2022-07-17T10:39:11;4.18;;;3.88;;
10230;SDS011;5159;49.432;8.680;2022-07-17T10:41:40;4.20;;;4.00;;
10230;SDS011;5159;49.432;8.680;2022-07-17T10:44:09;4.40;;;4.00;;
10230;SDS011;5159;49.432;8.680;2022-07-17T10:46:36;3.97;;;3.78;;
10230;SDS011;5159;49.432;8.680;2022-07-17T10:49:03;4.13;;;3.92;;
10230;SDS011;5159;49.432;8.680;2022-07-17T10:51:30;4.18;;;3.97;;
10230;SDS011;5159;49.432;8.680;2022-07-17T10:53:57;4.00;;;3.70;;
10230;SDS011;5159;49.432;8.680;2022-07-17T10:56:25;4.25;;;3.95;;
10230;SDS011;5159;49.432;8.680;2022-07-17T10:59:00;4.25;;;4.05;;
10230;SDS011;5159;49.432;8.680;2022-07-17T11:01:27;4.32;;;4.05;;
10230;SDS011;5159;49.432;8.680;2022-07-17T11:03:56;4.20;;;3.85;;
10230;SDS011;5159;49.432;8.680;2022-07-17T11:06:25;4.30;;;3.80;;
10230;SDS011;5159;49.432;8.680;2022-07-17T11:08:55;4.50;;;4.20;;
10230;SDS011;5159;49.432;8.680;2022-07-17T11:11:36;4.20;;;4.00;;
10230;SDS011;5159;49.432;8.680;2022-07-17T11:14:09;4.43;;;4.18;;
10230;SDS011;5159;49.432;8.680;2022-07-17T11:16:42;4.70;;;4.30;;
10230;SDS011;5159;49.432;8.680;2022-07-17T11:19:12;5.63;;;3.95;;
10230;SDS011;5159;49.432;8.680;2022-07-17T11:21:46;4.20;;;3.90;;
10230;SDS011;5159;49.432;8.680;2022-07-17T11:24:14;4.38;;;4.18;;
10230;SDS011;5159;49.432;8.680;2022-07-17T11:26:41;4.03;;;3.83;;
10230;SDS011;5159;49.432;8.680;2022-07-17T11:29:10;4.30;;;4.00;;
10230;SDS011;5159;49.432;8.680;2022-07-17T11:31:37;4.10;;;3.90;;
10230;SDS011;5159;49.432;8.680;2022-07-17T11:34:05;4.65;;;4.35;;
10230;SDS011;5159;49.432;8.680;2022-07-17T11:36:35;4.00;;;3.70;;
10230;SDS011;5159;49.432;8.680;2022-07-17T11:39:04;4.18;;;3.97;;
10230;SDS011;5159;49.432;8.680;2022-07-17T11:41:36;4.35;;;3.95;;
10230;SDS011;5159;49.432;8.680;2022-07-17T11:44:05;3.70;;;3.40;;
10230;SDS011;5159;49.432;8.680;2022-07-17T11:46:36;3.30;;;3.10;;
10230;SDS011;5159;49.432;8.680;2022-07-17T11:49:05;3.63;;;3.42;;
10230;SDS011;5159;49.432;8.680;2022-07-17T11:51:33;4.05;;;3.85;;
10230;SDS011;5159;49.432;8.680;2022-07-17T11:54:03;4.20;;;4.00;;
10230;SDS011;5159;49.432;8.680;2022-07-17T11:56:30;4.05;;;3.85;;
10230;SDS011;5159;49.432;8.680;2022-07-17T11:58:57;4.00;;;3.80;;
10230;SDS011;5159;49.432;8.680;2022-07-17T12:01:27;4.10;;;3.90;;
10230;SDS011;5159;49.432;8.680;2022-07-17T12:03:59;4.00;;;3.80;;
10230;SDS011;5159;49.432;8.680;2022-07-17T12:06:28;4.18;;;3.88;;
10230;SDS011;5159;49.432;8.680;2022-07-17T12:08:55;4.00;;;3.72;;
10230;SDS011;5159;49.432;8.680;2022-07-17T12:11:22;4.00;;;3.80;;
10230;SDS011;5159;49.432;8.680;2022-07-17T12:13:49;3.80;;;3.60;;
10230;SDS011;5159;49.432;8.680;2022-07-17T12:16:18;4.70;;;4.45;;
10230;SDS011;5159;49.432;8.680;2022-07-17T12:19:00;4.15;;;3.92;;
10230;SDS011;5159;49.432;8.680;2022-07-17T12:21:30;4.00;;;3.70;;
10230;SDS011;5159;49.432;8.680;2022-07-17T12:24:00;4.15;;;3.95;;
10230;SDS011;5159;49.432;8.680;2022-07-17T12:26:29;3.80;;;3.50;;
10230;SDS011;5159;49.432;8.680;2022-07-17T12:28:57;4.22;;;3.88;;
10230;SDS011;5159;49.432;8.680;2022-07-17T12:31:24;4.10;;;3.90;;
10230;SDS011;5159;49.432;8.680;2022-07-17T12:33:52;4.43;;;4.10;;
10230;SDS011;5159;49.432;8.680;2022-07-17T12:36:22;3.80;;;3.60;;
10230;SDS011;5159;49.432;8.680;2022-07-17T12:38:49;4.38;;;3.90;;
10230;SDS011;5159;49.432;8.680;2022-07-17T12:41:17;3.92;;;3.72;;
10230;SDS011;5159;49.432;8.680;2022-07-17T12:43:45;4.00;;;3.75;;
10230;SDS011;5159;49.432;8.680;2022-07-17T12:46:12;4.20;;;3.90;;
10230;SDS011;5159;49.432;8.680;2022-07-17T12:48:39;4.05;;;3.85;;
10230;SDS011;5159;49.432;8.680;2022-07-17T12:51:08;3.83;;;3.63;;
10230;SDS011;5159;49.432;8.680;2022-07-17T12:53:39;3.80;;;3.60;;
10230;SDS011;5159;49.432;8.680;2022-07-17T12:56:07;3.70;;;3.50;;
10230;SDS011;5159;49.432;8.680;2022-07-17T12:58:35;3.70;;;3.50;;
10230;SDS011;5159;49.432;8.680;2022-07-17T13:01:02;4.20;;;4.00;;
10230;SDS011;5159;49.432;8.680;2022-07-17T13:03:30;5.13;;;4.20;;
10230;SDS011;5159;49.432;8.680;2022-07-17T13:05:58;4.07;;;3.88;;
10230;SDS011;5159;49.432;8.680;2022-07-17T13:08:26;4.75;;;4.40;;
10230;SDS011;5159;49.432;8.680;2022-07-17T13:10:55;4.90;;;3.78;;
10230;SDS011;5159;49.432;8.680;2022-07-17T13:13:23;4.05;;;3.85;;
10230;SDS011;5159;49.432;8.680;2022-07-17T13:15:50;4.40;;;4.20;;
10230;SDS011;5159;49.432;8.680;2022-07-17T13:18:17;4.57;;;4.18;;
10230;SDS011;5159;49.432;8.680;2022-07-17T13:20:44;5.75;;;4.13;;
10230;SDS011;5159;49.432;8.680;2022-07-17T13:23:11;4.18;;;3.92;;
10230;SDS011;5159;49.432;8.680;2022-07-17T13:25:39;4.00;;;3.53;;
10230;SDS011;5159;49.432;8.680;2022-07-17T13:28:07;6.53;;;3.80;;
10230;SDS011;5159;49.432;8.680;2022-07-17T13:30:34;3.65;;;3.45;;
10230;SDS011;5159;49.432;8.680;2022-07-17T13:33:01;4.03;;;3.83;;
10230;SDS011;5159;49.432;8.680;2022-07-17T13:35:29;4.15;;;3.78;;
10230;SDS011;5159;49.432;8.680;2022-07-17T13:37:56;3.90;;;3.60;;
10230;SDS011;5159;49.432;8.680;2022-07-17T13:40:25;4.13;;;3.83;;
10230;SDS011;5159;49.432;8.680;2022-07-17T13:42:53;3.90;;;3.70;;
10230;SDS011;5159;49.432;8.680;2022-07-17T13:45:22;3.72;;;3.42;;
10230;SDS011;5159;49.432;8.680;2022-07-17T13:47:49;3.55;;;3.35;;
10230;SDS011;5159;49.432;8.680;2022-07-17T13:50:17;3.63;;;3.40;;
10230;SDS011;5159;49.432;8.680;2022-07-17T13:52:44;3.67;;;3.40;;
10230;SDS011;5159;49.432;8.680;2022-07-17T13:55:11;3.47;;;3.28;;
10230;SDS011;5159;49.432;8.680;2022-07-17T13:57:39;3.50;;;3.30;;
10230;SDS011;5159;49.432;8.680;2022-07-17T14:00:06;3.88;;;3.63;;
10230;SDS011;5159;49.432;8.680;2022-07-17T14:02:36;3.60;;;3.40;;
10230;SDS011;5159;49.432;8.680;2022-07-17T14:05:04;3.65;;;3.45;;
10230;SDS011;5159;49.432;8.680;2022-07-17T14:07:33;3.50;;;3.30;;
10230;SDS011;5159;49.432;8.680;2022-07-17T14:10:00;3.88;;;3.60;;
10230;SDS011;5159;49.432;8.680;2022-07-17T14:12:27;3.85;;;3.65;;
10230;SDS011;5159;49.432;8.680;2022-07-17T14:14:54;3.80;;;3.60;;
10230;SDS011;5159;49.432;8.680;2022-07-17T14:17:21;3.58;;;3.38;;
10230;SDS011;5159;49.432;8.680;2022-07-17T14:19:50;3.60;;;3.30;;
10230;SDS011;5159;49.432;8.680;2022-07-17T14:22:17;3.92;;;3.50;;
10230;SDS011;5159;49.432;8.680;2022-07-17T14:24:44;3.60;;;3.40;;
10230;SDS011;5159;49.432;8.680;2022-07-17T14:27:10;3.70;;;3.50;;
10230;SDS011;5159;49.432;8.680;2022-07-17T14:29:37;3.70;;;3.50;;
10230;SDS011;5159;49.432;8.680;2022-07-17T14:32:05;3.92;;;3.70;;
10230;SDS011;5159;49.432;8.680;2022-07-17T14:34:32;4.00;;;3.80;;
10230;SDS011;5159;49.432;8.680;2022-07-17T14:37:01;4.45;;;4.15;;
10230;SDS011;5159;49.432;8.680;2022-07-17T14:39:31;4.28;;;4.07;;
10230;SDS011;5159;49.432;8.680;2022-07-17T14:41:58;4.38;;;4.18;;
10230;SDS011;5159;49.432;8.680;2022-07-17T14:44:26;4.90;;;4.20;;
10230;SDS011;5159;49.432;8.680;2022-07-17T14:46:55;3.83;;;3.63;;
10230;SDS011;5159;49.432;8.680;2022-07-17T14:49:23;4.00;;;3.80;;
10230;SDS011;5159;49.432;8.680;2022-07-17T14:51:50;5.22;;;3.85;;
10230;SDS011;5159;49.432;8.680;2022-07-17T14:54:19;6.40;;;3.63;;
10230;SDS011;5159;49.432;8.680;2022-07-17T14:56:46;3.80;;;3.60;;
10230;SDS011;5159;49.432;8.680;2022-07-17T14:59:13;4.05;;;3.75;;
10230;SDS011;5159;49.432;8.680;2022-07-17T15:01:40;5.47;;;3.50;;
10230;SDS011;5159;49.432;8.680;2022-07-17T15:04:07;3.55;;;3.25;;
10230;SDS011;5159;49.432;8.680;2022-07-17T15:06:34;4.00;;;3.70;;